Time;durP1;ratioP1;P1;durP2;ratioP2;P2;SDS_P1;SDS_P2;PMS_P1;PMS_P2;Temp;Humidity;BMP_temperature;BMP_pressure;BME280_temperature;BME280_humidity;BME280_pressure;Samples;Min_cycle;Max_cycle;Signal;HPM_P1;HPM_P2
2021/12/02 00:01:39;;;;;;;2.63;2.53;;;;;;;;;;4955717;28;20062;-76
2021/12/02 00:04:05;;;;;;;2.42;2.33;;;;;;;;;;4955583;29;20386;-77
2021/12/02 00:06:30;;;;;;;2.40;2.30;;;;;;;;;;4954702;28;20148;-76
2021/12/02 00:08:56;;;;;;;3.83;3.63;;;;;;;;;;4954990;28;20406;-79
2021/12/02 00:11:21;;;;;;;3.10;2.38;;;;;;;;;;4955409;28;20070;-79
2021/12/02 00:16:22;;;;;;;5.65;5.35;;;;;;;;;;4955332;29;20507;-77
2021/12/02 00:21:25;;;;;;;2.35;2.25;;;;;;;;;;4955424;28;20403;-76
2021/12/02 00:24:08;;;;;;;2.45;2.35;;;;;;;;;;4955306;29;20054;-78
2021/12/02 00:26:38;;;;;;;2.45;2.35;;;;;;;;;;4955203;28;20043;-77
2021/12/02 00:29:05;;;;;;;;;;;;;;;;;;4955725;29;20482;-76
2021/12/02 00:31:32;;;;;;;2.75;2.63;;;;;;;;;;4955413;29;19926;-78
2021/12/02 00:34:00;;;;;;;2.75;2.55;;;;;;;;;;4954844;28;20031;-77
2021/12/02 00:36:28;;;;;;;2.33;2.22;;;;;;;;;;4954917;28;20039;-77
2021/12/02 00:38:54;;;;;;;2.33;2.22;;;;;;;;;;4955158;28;20039;-76
2021/12/02 00:41:24;;;;;;;2.83;2.65;;;;;;;;;;4954919;28;20038;-77
2021/12/02 00:43:52;;;;;;;2.25;2.15;;;;;;;;;;4954905;28;20827;-79
2021/12/02 00:46:20;;;;;;;2.38;2.28;;;;;;;;;;4937333;28;20089;-76
2021/12/02 00:48:47;;;;;;;2.50;2.40;;;;;;;;;;4954477;28;20054;-78
2021/12/02 00:51:15;;;;;;;2.47;2.38;;;;;;;;;;4954591;28;20090;-78
2021/12/02 00:53:43;;;;;;;2.38;2.17;;;;;;;;;;4954560;29;20087;-79
2021/12/02 00:56:11;;;;;;;2.70;2.60;;;;;;;;;;4954906;29;20462;-80
2021/12/02 00:58:37;;;;;;;2.53;2.42;;;;;;;;;;4954489;28;20039;-80
2021/12/02 01:01:04;;;;;;;2.55;2.42;;;;;;;;;;4954527;29;20045;-78
2021/12/02 01:03:37;;;;;;;2.28;2.17;;;;;;;;;;4954353;28;20118;-77
2021/12/02 01:06:05;;;;;;;2.53;2.42;;;;;;;;;;4954259;29;20134;-77
2021/12/02 01:08:32;;;;;;;2.92;2.83;;;;;;;;;;4953923;28;20062;-78
2021/12/02 01:10:58;;;;;;;3.05;2.85;;;;;;;;;;4953835;29;20043;-76
2021/12/02 01:13:23;;;;;;;2.33;2.20;;;;;;;;;;4953999;28;20063;-78
2021/12/02 01:15:49;;;;;;;2.55;2.40;;;;;;;;;;4954586;29;20035;-80
2021/12/02 01:18:15;;;;;;;2.70;2.60;;;;;;;;;;4953994;29;20073;-76
2021/12/02 01:20:44;;;;;;;2.20;2.10;;;;;;;;;;4953288;28;20070;-76
2021/12/02 01:23:10;;;;;;;2.67;2.58;;;;;;;;;;4953561;28;20035;-74
2021/12/02 01:25:37;;;;;;;2.40;2.30;;;;;;;;;;4953779;29;20035;-75
2021/12/02 01:28:03;;;;;;;2.72;2.63;;;;;;;;;;4953528;28;20053;-76
2021/12/02 01:30:30;;;;;;;2.33;2.22;;;;;;;;;;4953306;29;20411;-77
2021/12/02 01:33:06;;;;;;;2.65;2.47;;;;;;;;;;4953220;29;20039;-76
2021/12/02 01:35:34;;;;;;;2.70;2.50;;;;;;;;;;4953882;28;20046;-77
2021/12/02 01:37:59;;;;;;;2.25;2.15;;;;;;;;;;4953479;29;20037;-78
2021/12/02 01:40:26;;;;;;;2.65;2.45;;;;;;;;;;4953245;29;20126;-76
2021/12/02 01:42:54;;;;;;;2.55;2.45;;;;;;;;;;4953157;29;20069;-77
2021/12/02 01:45:29;;;;;;;2.75;2.45;;;;;;;;;;4952889;29;20098;-76
2021/12/02 01:47:56;;;;;;;2.50;2.30;;;;;;;;;;4952807;28;20036;-77
2021/12/02 01:50:25;;;;;;;2.50;2.40;;;;;;;;;;4953399;29;20031;-77
2021/12/02 01:52:56;;;;;;;3.20;2.90;;;;;;;;;;4953259;28;20031;-76
2021/12/02 01:55:22;;;;;;;2.50;2.40;;;;;;;;;;4953473;28;20125;-77
2021/12/02 01:58:01;;;;;;;3.45;3.15;;;;;;;;;;4953061;28;20062;-76
2021/12/02 02:00:42;;;;;;;3.08;2.83;;;;;;;;;;4952780;28;20043;-76
2021/12/02 02:03:09;;;;;;;2.70;2.50;;;;;;;;;;4952825;28;20036;-77
2021/12/02 02:05:36;;;;;;;2.53;2.33;;;;;;;;;;4952802;28;20043;-77
2021/12/02 02:08:10;;;;;;;2.53;2.42;;;;;;;;;;4952777;29;20147;-78
2021/12/02 02:10:39;;;;;;;2.70;2.50;;;;;;;;;;4952866;29;20038;-78
2021/12/02 02:13:08;;;;;;;3.20;2.90;;;;;;;;;;4953349;29;20043;-77
2021/12/02 02:15:34;;;;;;;2.85;2.65;;;;;;;;;;4952950;29;20125;-76
2021/12/02 02:20:43;;;;;;;2.80;2.60;;;;;;;;;;4953050;29;20035;-75
2021/12/02 02:23:12;;;;;;;3.10;2.63;;;;;;;;;;4953097;29;20145;-77
2021/12/02 02:25:39;;;;;;;2.60;2.40;;;;;;;;;;4952711;29;20035;-77
2021/12/02 02:28:05;;;;;;;3.15;2.95;;;;;;;;;;4952523;29;20050;-78
2021/12/02 02:30:30;;;;;;;3.90;3.70;;;;;;;;;;4952499;28;20437;-76
2021/12/02 02:32:56;;;;;;;3.33;3.00;;;;;;;;;;4954607;29;20035;-78
2021/12/02 02:35:21;;;;;;;3.03;2.83;;;;;;;;;;4954521;28;20031;-79
2021/12/02 02:37:47;;;;;;;3.13;2.92;;;;;;;;;;4954321;29;20072;-75
2021/12/02 02:40:15;;;;;;;3.28;3.08;;;;;;;;;;4954536;28;20070;-74
2021/12/02 02:42:41;;;;;;;3.25;2.85;;;;;;;;;;4954743;29;20052;-76
2021/12/02 02:45:06;;;;;;;2.90;2.70;;;;;;;;;;4954768;28;20121;-75
2021/12/02 02:47:32;;;;;;;3.08;2.88;;;;;;;;;;4954113;29;20043;-76
2021/12/02 02:49:57;;;;;;;4.55;4.25;;;;;;;;;;4954294;28;20427;-78
2021/12/02 02:52:23;;;;;;;3.42;3.20;;;;;;;;;;4954300;28;20134;-79
2021/12/02 02:54:49;;;;;;;2.95;2.75;;;;;;;;;;4954210;28;20405;-78
2021/12/02 02:57:17;;;;;;;3.33;3.13;;;;;;;;;;4937121;29;20043;-75
2021/12/02 03:05:26;;;;;;;3.45;3.15;;;;;;;;;;4958380;29;20492;-78
2021/12/02 03:07:59;;;;;;;3.40;3.20;;;;;;;;;;4957982;28;20043;-76
2021/12/02 03:13:21;;;;;;;3.35;3.15;;;;;;;;;;4958172;29;20117;-79
2021/12/02 03:18:33;;;;;;;3.65;3.40;;;;;;;;;;4958618;29;20126;-76
2021/12/02 03:21:00;;;;;;;5.05;4.55;;;;;;;;;;4957957;29;20063;-76
2021/12/02 03:23:25;;;;;;;5.43;3.45;;;;;;;;;;4957617;28;20035;-77
2021/12/02 03:25:51;;;;;;;4.57;4.15;;;;;;;;;;4957823;29;20061;-76
2021/12/02 03:28:16;;;;;;;5.43;4.20;;;;;;;;;;4958055;28;20046;-79
2021/12/02 03:30:42;;;;;;;6.38;4.18;;;;;;;;;;4957047;28;20071;-77
2021/12/02 03:33:07;;;;;;;4.43;4.03;;;;;;;;;;4955451;29;20045;-76
2021/12/02 03:35:33;;;;;;;5.25;4.65;;;;;;;;;;4955463;28;20114;-78
2021/12/02 03:37:58;;;;;;;5.40;4.60;;;;;;;;;;4955646;29;20043;-77
2021/12/02 03:40:24;;;;;;;4.85;4.35;;;;;;;;;;4955921;29;20038;-77
2021/12/02 03:42:54;;;;;;;6.15;4.88;;;;;;;;;;4955708;29;20039;-79
2021/12/02 03:45:23;;;;;;;5.38;4.65;;;;;;;;;;4955560;28;20035;-77
2021/12/02 03:47:49;;;;;;;4.93;4.45;;;;;;;;;;4955546;28;20034;-79
2021/12/02 03:50:14;;;;;;;5.53;5.03;;;;;;;;;;4955293;29;20064;-76
2021/12/02 03:52:40;;;;;;;5.65;5.00;;;;;;;;;;4955314;29;20050;-77
2021/12/02 03:55:06;;;;;;;6.63;4.90;;;;;;;;;;4955818;29;20113;-77
2021/12/02 03:57:32;;;;;;;5.70;4.75;;;;;;;;;;4955775;29;20121;-79
2021/12/02 03:59:58;;;;;;;6.25;5.07;;;;;;;;;;4955242;28;20146;-78
2021/12/02 04:02:24;;;;;;;5.43;4.88;;;;;;;;;;4955682;29;20027;-77
2021/12/02 04:04:49;;;;;;;5.50;4.72;;;;;;;;;;4955350;29;20059;-77
2021/12/02 04:07:18;;;;;;;5.85;4.85;;;;;;;;;;4955264;29;20557;-78
2021/12/02 04:09:45;;;;;;;6.22;5.63;;;;;;;;;;4955170;29;20406;-76
2021/12/02 04:12:18;;;;;;;7.38;6.28;;;;;;;;;;4954502;28;20453;-75
2021/12/02 04:14:52;;;;;;;5.00;4.45;;;;;;;;;;4955681;28;20035;-80
2021/12/02 04:17:28;;;;;;;6.70;6.05;;;;;;;;;;4955733;29;20411;-79
2021/12/02 04:19:53;;;;;;;6.22;5.30;;;;;;;;;;4955641;28;20042;-77
2021/12/02 04:22:19;;;;;;;5.25;4.57;;;;;;;;;;4955155;29;20031;-78
2021/12/02 04:24:44;;;;;;;6.93;5.50;;;;;;;;;;4955067;29;20030;-78
2021/12/02 04:27:09;;;;;;;5.43;4.85;;;;;;;;;;4955038;28;20046;-77
2021/12/02 04:29:35;;;;;;;5.28;4.78;;;;;;;;;;4954027;28;20058;-76
2021/12/02 04:32:00;;;;;;;7.32;6.68;;;;;;;;;;4954722;29;20421;-77
2021/12/02 04:34:26;;;;;;;5.28;4.60;;;;;;;;;;4954333;29;20046;-77
2021/12/02 04:36:51;;;;;;;5.20;4.60;;;;;;;;;;4954453;29;20094;-78
2021/12/02 04:39:17;;;;;;;6.45;5.25;;;;;;;;;;4937258;29;20035;-79
2021/12/02 04:41:43;;;;;;;5.60;4.75;;;;;;;;;;4954485;29;20398;-79
2021/12/02 04:44:08;;;;;;;4.28;3.88;;;;;;;;;;4954272;28;20085;-78
2021/12/02 04:46:34;;;;;;;5.20;4.57;;;;;;;;;;4954582;28;20097;-76
2021/12/02 04:48:59;;;;;;;8.68;4.90;;;;;;;;;;4954353;29;20038;-77
2021/12/02 04:51:25;;;;;;;7.07;4.65;;;;;;;;;;4955040;28;20043;-77
2021/12/02 04:53:50;;;;;;;6.95;5.53;;;;;;;;;;4954470;29;20063;-77
2021/12/02 04:56:16;;;;;;;5.10;4.60;;;;;;;;;;4953905;28;20162;-79
2021/12/02 04:58:41;;;;;;;7.80;5.35;;;;;;;;;;4954452;29;20117;-79
2021/12/02 05:01:07;;;;;;;4.72;4.18;;;;;;;;;;4954804;29;20039;-78
2021/12/02 05:03:32;;;;;;;5.40;4.90;;;;;;;;;;4954833;28;20364;-76
2021/12/02 05:05:58;;;;;;;6.57;5.15;;;;;;;;;;4954194;28;20035;-78
2021/12/02 05:08:23;;;;;;;5.55;4.95;;;;;;;;;;4954312;28;20557;-77
2021/12/02 05:10:48;;;;;;;5.43;4.80;;;;;;;;;;4954385;28;20041;-78
2021/12/02 05:13:14;;;;;;;6.22;4.75;;;;;;;;;;4954653;29;20494;-78
2021/12/02 05:15:39;;;;;;;6.22;4.55;;;;;;;;;;4954049;29;20031;-77
2021/12/02 05:18:05;;;;;;;6.25;5.00;;;;;;;;;;4936773;29;20058;-78
2021/12/02 05:20:30;;;;;;;5.53;4.82;;;;;;;;;;4953974;29;20039;-77
2021/12/02 05:22:56;;;;;;;6.70;4.57;;;;;;;;;;4953052;28;20058;-79
2021/12/02 05:25:21;;;;;;;5.95;5.30;;;;;;;;;;4953820;29;20118;-79
2021/12/02 05:27:47;;;;;;;5.88;4.70;;;;;;;;;;4953798;28;20098;-79
2021/12/02 05:30:13;;;;;;;5.82;4.90;;;;;;;;;;4954479;29;20059;-80
2021/12/02 05:32:39;;;;;;;6.00;5.05;;;;;;;;;;4954364;29;20389;-80
2021/12/02 05:35:05;;;;;;;7.40;5.25;;;;;;;;;;4953852;28;20058;-78
2021/12/02 05:37:30;;;;;;;5.85;5.25;;;;;;;;;;4954007;28;20031;-81
2021/12/02 05:39:56;;;;;;;8.70;5.40;;;;;;;;;;4954025;28;20123;-79
2021/12/02 05:42:23;;;;;;;6.53;4.78;;;;;;;;;;4954474;29;20126;-79
2021/12/02 05:44:48;;;;;;;6.63;5.05;;;;;;;;;;4954593;28;20042;-78
2021/12/02 05:47:14;;;;;;;6.03;4.90;;;;;;;;;;4953930;29;20035;-77
2021/12/02 05:49:39;;;;;;;6.20;5.15;;;;;;;;;;4954345;28;20081;-77
2021/12/02 05:52:05;;;;;;;7.78;4.90;;;;;;;;;;4954012;29;20062;-79
2021/12/02 05:54:32;;;;;;;6.63;5.18;;;;;;;;;;4954085;28;20122;-78
2021/12/02 05:56:57;;;;;;;8.60;7.80;;;;;;;;;;4954011;28;20394;-77
2021/12/02 05:59:24;;;;;;;6.47;5.28;;;;;;;;;;4954812;29;20038;-79
2021/12/02 06:01:50;;;;;;;6.45;4.85;;;;;;;;;;4954600;28;20096;-79
2021/12/02 06:04:16;;;;;;;7.45;5.68;;;;;;;;;;4954539;28;20034;-79
2021/12/02 06:06:42;;;;;;;7.40;5.32;;;;;;;;;;4953928;29;20035;-77
2021/12/02 06:09:07;;;;;;;9.32;5.80;;;;;;;;;;4954479;28;20066;-79
2021/12/02 06:11:33;;;;;;;9.95;6.25;;;;;;;;;;4954212;29;20041;-79
2021/12/02 06:13:58;;;;;;;7.78;5.75;;;;;;;;;;4954315;28;20039;-78
2021/12/02 06:16:24;;;;;;;7.72;5.65;;;;;;;;;;4936642;29;20038;-82
2021/12/02 06:18:49;;;;;;;6.70;5.70;;;;;;;;;;4953482;28;20027;-77
2021/12/02 06:21:15;;;;;;;6.40;5.75;;;;;;;;;;4953626;29;20047;-80
2021/12/02 06:23:41;;;;;;;7.45;6.75;;;;;;;;;;4936016;29;20374;-80
2021/12/02 06:26:10;;;;;;;6.47;5.18;;;;;;;;;;4953797;28;20497;-80
2021/12/02 06:28:36;;;;;;;7.47;5.63;;;;;;;;;;4953043;28;20046;-74
2021/12/02 06:31:02;;;;;;;9.45;5.80;;;;;;;;;;4953219;28;20059;-78
2021/12/02 06:33:32;;;;;;;7.15;5.30;;;;;;;;;;4952968;28;20557;-76
2021/12/02 06:35:57;;;;;;;7.82;5.40;;;;;;;;;;4952739;28;20035;-77
2021/12/02 06:38:26;;;;;;;6.25;5.35;;;;;;;;;;4953725;28;20050;-79
2021/12/02 06:40:51;;;;;;;6.38;5.18;;;;;;;;;;4953218;28;20035;-77
2021/12/02 06:43:17;;;;;;;6.55;5.53;;;;;;;;;;4953210;29;20035;-76
2021/12/02 06:45:43;;;;;;;6.28;5.20;;;;;;;;;;4952963;29;20170;-77
2021/12/02 06:48:09;;;;;;;6.53;5.25;;;;;;;;;;4953092;28;20034;-78
2021/12/02 06:50:36;;;;;;;6.32;5.00;;;;;;;;;;4953318;29;20035;-78
2021/12/02 06:53:03;;;;;;;8.38;7.50;;;;;;;;;;4953063;28;20438;-76
2021/12/02 06:55:29;;;;;;;7.05;5.75;;;;;;;;;;4952701;28;20195;-78
2021/12/02 06:57:54;;;;;;;8.75;7.32;;;;;;;;;;4952836;29;20160;-76
2021/12/02 07:00:21;;;;;;;6.70;5.22;;;;;;;;;;4952764;29;20027;-77
2021/12/02 07:02:47;;;;;;;9.82;7.28;;;;;;;;;;4937238;28;20432;-79
2021/12/02 07:05:15;;;;;;;5.90;5.25;;;;;;;;;;4933380;29;20083;-76
2021/12/02 07:07:42;;;;;;;7.03;5.38;;;;;;;;;;4956744;28;20084;-79
2021/12/02 07:10:15;;;;;;;7.95;7.13;;;;;;;;;;4971420;28;20409;-77
2021/12/02 07:12:46;;;;;;;6.63;5.93;;;;;;;;;;4934045;29;20105;-80
2021/12/02 07:15:54;;;;;;;10.10;8.55;;;;;;;;;;4935761;29;20401;-82
2021/12/02 07:18:01;;;;;;;9.30;6.35;;;;;;;;;;4942529;29;20498;-80
2021/12/02 07:20:34;;;;;;;8.25;6.38;;;;;;;;;;4953328;29;20043;-80
2021/12/02 07:23:00;;;;;;;8.43;6.45;;;;;;;;;;4954147;29;20087;-79
2021/12/02 07:25:27;;;;;;;12.95;6.32;;;;;;;;;;4940253;29;20581;-79
2021/12/02 07:27:55;;;;;;;8.25;6.20;;;;;;;;;;4934795;29;20039;-78
2021/12/02 07:30:20;;;;;;;9.55;6.43;;;;;;;;;;4933328;29;20063;-79
2021/12/02 07:32:51;;;;;;;9.02;6.65;;;;;;;;;;4933440;29;20039;-79
2021/12/02 07:35:17;;;;;;;10.23;8.55;;;;;;;;;;4929847;29;20463;-78
2021/12/02 07:37:46;;;;;;;8.90;6.10;;;;;;;;;;4934184;29;20063;-77
2021/12/02 07:40:13;;;;;;;9.65;6.40;;;;;;;;;;4933125;29;20581;-80
2021/12/02 07:42:39;;;;;;;9.32;7.00;;;;;;;;;;4932932;29;20028;-81
2021/12/02 07:45:06;;;;;;;9.88;6.50;;;;;;;;;;4933400;29;20475;-77
2021/12/02 07:47:33;;;;;;;10.50;6.82;;;;;;;;;;4937025;29;20035;-78
2021/12/02 07:49:59;;;;;;;9.93;7.78;;;;;;;;;;4936702;29;20090;-79
2021/12/02 07:52:25;;;;;;;12.27;9.85;;;;;;;;;;4936515;29;20430;-79
2021/12/02 07:54:55;;;;;;;9.32;7.63;;;;;;;;;;4933017;29;20032;-79
2021/12/02 07:57:21;;;;;;;12.25;7.75;;;;;;;;;;4959930;28;20037;-79
2021/12/02 07:59:52;;;;;;;10.18;8.07;;;;;;;;;;4975445;28;20030;-79
2021/12/02 08:02:18;;;;;;;14.52;8.40;;;;;;;;;;4956122;28;20046;-80
2021/12/02 08:04:44;;;;;;;10.20;8.13;;;;;;;;;;4958614;28;20026;-78
2021/12/02 08:07:09;;;;;;;11.85;9.57;;;;;;;;;;4975076;28;20030;-79
2021/12/02 08:09:35;;;;;;;12.85;10.48;;;;;;;;;;4976601;28;20034;-77
2021/12/02 08:12:01;;;;;;;12.13;9.52;;;;;;;;;;4975763;28;20035;-79
2021/12/02 08:14:27;;;;;;;12.63;9.88;;;;;;;;;;4975522;28;20039;-78
2021/12/02 08:16:53;;;;;;;13.60;9.15;;;;;;;;;;4971578;28;20041;-82
2021/12/02 08:19:19;;;;;;;11.65;8.90;;;;;;;;;;4974560;28;20034;-80
2021/12/02 08:21:45;;;;;;;11.30;8.80;;;;;;;;;;4950701;28;20035;-79
2021/12/02 08:24:11;;;;;;;13.68;10.27;;;;;;;;;;4946264;29;20078;-78
2021/12/02 08:26:36;;;;;;;15.00;9.35;;;;;;;;;;4936317;29;20038;-78
2021/12/02 08:29:03;;;;;;;14.32;9.85;;;;;;;;;;4936425;29;20047;-79
2021/12/02 08:31:29;;;;;;;12.75;8.80;;;;;;;;;;4936045;29;20036;-78
2021/12/02 08:33:55;;;;;;;15.73;9.52;;;;;;;;;;4936329;29;20091;-79
2021/12/02 08:36:23;;;;;;;15.10;9.68;;;;;;;;;;4936003;29;20081;-79
2021/12/02 08:38:50;;;;;;;16.45;10.00;;;;;;;;;;4931762;29;20046;-80
2021/12/02 08:41:18;;;;;;;14.52;10.20;;;;;;;;;;4934952;29;20034;-79
2021/12/02 08:43:45;;;;;;;13.32;10.82;;;;;;;;;;4935340;29;20028;-80
2021/12/02 08:46:11;;;;;;;16.02;11.00;;;;;;;;;;4935786;29;20082;-81
2021/12/02 08:48:36;;;;;;;16.08;11.55;;;;;;;;;;4936216;29;20080;-82
2021/12/02 08:51:02;;;;;;;16.20;11.68;;;;;;;;;;4937965;29;20503;-82
2021/12/02 08:53:28;;;;;;;14.88;11.43;;;;;;;;;;4937282;29;20046;-78
2021/12/02 08:55:54;;;;;;;21.02;11.50;;;;;;;;;;4937128;29;20114;-80
2021/12/02 08:58:19;;;;;;;19.85;12.45;;;;;;;;;;4936543;29;20055;-81
2021/12/02 09:00:46;;;;;;;19.08;12.57;;;;;;;;;;4930316;29;20167;-78
2021/12/02 09:03:14;;;;;;;16.55;11.07;;;;;;;;;;4916199;29;20035;-79
2021/12/02 09:05:40;;;;;;;19.35;12.65;;;;;;;;;;4934882;29;20031;-77
2021/12/02 09:08:05;;;;;;;19.48;11.57;;;;;;;;;;4935893;29;20410;-83
2021/12/02 09:10:32;;;;;;;16.30;10.98;;;;;;;;;;4936422;29;20042;-79
2021/12/02 09:12:58;;;;;;;16.80;11.25;;;;;;;;;;4936714;29;20035;-79
2021/12/02 09:15:24;;;;;;;17.40;13.02;;;;;;;;;;4918704;29;20036;-75
2021/12/02 09:17:50;;;;;;;17.65;12.43;;;;;;;;;;4936713;29;20058;-81
2021/12/02 09:20:17;;;;;;;14.82;11.15;;;;;;;;;;4937022;29;20038;-81
2021/12/02 09:22:46;;;;;;;16.50;11.75;;;;;;;;;;4933811;29;20110;-79
2021/12/02 09:25:13;;;;;;;16.92;11.93;;;;;;;;;;4917703;29;20031;-80
2021/12/02 09:27:39;;;;;;;15.57;11.88;;;;;;;;;;4935438;29;20039;-81
2021/12/02 09:30:06;;;;;;;15.30;10.93;;;;;;;;;;4934338;29;20168;-78
2021/12/02 09:32:32;;;;;;;17.23;11.10;;;;;;;;;;4934128;29;20059;-76
2021/12/02 09:34:59;;;;;;;15.45;11.10;;;;;;;;;;4934075;29;20039;-76
2021/12/02 09:37:24;;;;;;;17.00;10.73;;;;;;;;;;4933772;29;20503;-83
2021/12/02 09:39:50;;;;;;;19.42;12.52;;;;;;;;;;4934721;29;20027;-78
2021/12/02 09:42:16;;;;;;;20.17;12.73;;;;;;;;;;4933681;29;20039;-79
2021/12/02 09:44:44;;;;;;;14.40;11.80;;;;;;;;;;4928482;29;20035;-77
2021/12/02 09:47:09;;;;;;;15.55;11.50;;;;;;;;;;4934325;29;20038;-78
2021/12/02 09:49:36;;;;;;;18.65;12.82;;;;;;;;;;4934202;29;20495;-79
2021/12/02 09:52:04;;;;;;;16.88;11.65;;;;;;;;;;4933701;29;20522;-78
2021/12/02 09:54:44;;;;;;;17.35;11.98;;;;;;;;;;4917001;29;20143;-80
2021/12/02 09:57:14;;;;;;;18.13;11.23;;;;;;;;;;4934488;29;20043;-78
2021/12/02 10:02:12;;;;;;;20.35;12.00;;;;;;;;;;4932662;29;20074;-77
2021/12/02 10:04:51;;;;;;;17.92;12.40;;;;;;;;;;4933401;29;20031;-74
2021/12/02 10:07:24;;;;;;;19.70;12.18;;;;;;;;;;4930800;29;20035;-79
2021/12/02 10:10:05;;;;;;;19.13;11.65;;;;;;;;;;4933712;29;20074;-80
2021/12/02 10:12:34;;;;;;;18.08;11.38;;;;;;;;;;4935457;29;20039;-80
2021/12/02 10:15:02;;;;;;;17.98;11.95;;;;;;;;;;4917341;29;20075;-84
2021/12/02 10:22:41;;;;;;;17.40;12.10;;;;;;;;;;4935491;29;20479;-79
2021/12/02 10:25:07;;;;;;;16.58;12.02;;;;;;;;;;4941563;29;20039;-79
2021/12/02 10:27:33;;;;;;;15.73;10.40;;;;;;;;;;4934637;29;20550;-81
2021/12/02 10:29:58;;;;;;;15.05;11.45;;;;;;;;;;4935714;29;20138;-79
2021/12/02 10:32:28;;;;;;;18.30;11.63;;;;;;;;;;4934023;29;20039;-79
2021/12/02 10:34:57;;;;;;;19.35;12.38;;;;;;;;;;4941326;29;20471;-78
2021/12/02 10:37:27;;;;;;;15.23;11.30;;;;;;;;;;4951304;28;20122;-78
2021/12/02 10:39:58;;;;;;;18.73;12.27;;;;;;;;;;4928017;29;20122;-80
2021/12/02 10:42:25;;;;;;;19.00;12.07;;;;;;;;;;4933395;29;20035;-80
2021/12/02 10:44:50;;;;;;;18.27;12.60;;;;;;;;;;4932553;29;20490;-79
2021/12/02 10:47:16;;;;;;;14.18;10.68;;;;;;;;;;4936794;29;20043;-79
2021/12/02 10:49:49;;;;;;;15.93;11.65;;;;;;;;;;4929187;29;20035;-81
2021/12/02 10:52:21;;;;;;;19.15;11.90;;;;;;;;;;4932910;29;20039;-78
2021/12/02 10:54:51;;;;;;;20.92;13.50;;;;;;;;;;4932111;29;20028;-80
2021/12/02 10:57:21;;;;;;;16.30;12.57;;;;;;;;;;4954810;28;20030;-79
2021/12/02 10:59:54;;;;;;;17.98;11.90;;;;;;;;;;4933679;28;20044;-81
2021/12/02 11:02:29;;;;;;;20.77;13.18;;;;;;;;;;4932198;29;20209;-80
2021/12/02 11:04:56;;;;;;;18.70;12.10;;;;;;;;;;4932700;29;20036;-79
2021/12/02 11:07:36;;;;;;;17.83;11.77;;;;;;;;;;4916227;29;20046;-80
2021/12/02 11:10:08;;;;;;;16.48;12.57;;;;;;;;;;4933232;29;20042;-78
2021/12/02 11:12:40;;;;;;;21.40;13.85;;;;;;;;;;4912353;29;20918;-78
2021/12/02 11:15:13;;;;;;;16.33;12.18;;;;;;;;;;4936026;29;20039;-79
2021/12/02 11:17:43;;;;;;;18.23;11.25;;;;;;;;;;4952214;28;20091;-77
2021/12/02 11:20:17;;;;;;;16.77;12.43;;;;;;;;;;4943456;29;20140;-82
2021/12/02 11:22:44;;;;;;;19.67;12.23;;;;;;;;;;4938411;29;20997;-79
2021/12/02 11:25:11;;;;;;;16.58;11.52;;;;;;;;;;4954479;28;20035;-78
2021/12/02 11:27:46;;;;;;;16.48;10.65;;;;;;;;;;4956175;29;20106;-80
2021/12/02 11:30:26;;;;;;;14.93;11.38;;;;;;;;;;4956400;29;20075;-79
2021/12/02 11:32:58;;;;;;;15.27;10.70;;;;;;;;;;4956146;29;20027;-80
2021/12/02 11:35:34;;;;;;;11.55;9.73;;;;;;;;;;4951495;28;20059;-81
2021/12/02 11:38:01;;;;;;;12.35;9.80;;;;;;;;;;4955988;29;20520;-80
2021/12/02 11:40:30;;;;;;;22.90;10.60;;;;;;;;;;4955384;29;20039;-78
2021/12/02 11:42:56;;;;;;;17.73;11.30;;;;;;;;;;4955435;29;20193;-77
2021/12/02 11:45:24;;;;;;;16.17;9.27;;;;;;;;;;4955311;28;20118;-80
2021/12/02 11:47:51;;;;;;;17.10;9.43;;;;;;;;;;4936965;29;20035;-80
2021/12/02 11:50:19;;;;;;;14.65;10.27;;;;;;;;;;4942331;29;20070;-78
2021/12/02 11:52:45;;;;;;;11.80;9.35;;;;;;;;;;4935824;29;20039;-79
2021/12/02 11:55:20;;;;;;;16.20;10.60;;;;;;;;;;4935515;29;20035;-82
2021/12/02 11:57:53;;;;;;;19.42;15.63;;;;;;;;;;4964493;28;20503;-81
2021/12/02 12:00:23;;;;;;;14.02;10.02;;;;;;;;;;4973403;28;20112;-81
2021/12/02 12:02:54;;;;;;;14.13;11.10;;;;;;;;;;4975672;28;20082;-81
2021/12/02 12:05:27;;;;;;;12.48;8.60;;;;;;;;;;4974265;28;20030;-80
2021/12/02 12:07:53;;;;;;;18.52;10.82;;;;;;;;;;4975301;28;20031;-77
2021/12/02 12:10:35;;;;;;;17.85;11.48;;;;;;;;;;4976218;28;20034;-82
2021/12/02 12:13:18;;;;;;;17.45;10.98;;;;;;;;;;4975001;28;20069;-79
2021/12/02 12:15:58;;;;;;;18.75;11.38;;;;;;;;;;4975490;28;20489;-83
2021/12/02 12:18:27;;;;;;;19.50;12.50;;;;;;;;;;4971333;28;20031;-80
2021/12/02 12:20:53;;;;;;;19.48;12.70;;;;;;;;;;4968541;28;20089;-79
2021/12/02 12:23:51;;;;;;;17.73;12.98;;;;;;;;;;4949308;29;20514;-80
2021/12/02 12:26:18;;;;;;;22.30;13.30;;;;;;;;;;4939154;29;20031;-82
2021/12/02 12:29:09;;;;;;;21.08;13.75;;;;;;;;;;4935723;29;20039;-77
2021/12/02 12:31:43;;;;;;;22.48;12.93;;;;;;;;;;4938420;28;20417;-80
2021/12/02 12:34:28;;;;;;;27.60;15.50;;;;;;;;;;4938260;29;20486;-79
2021/12/02 12:36:54;;;;;;;20.00;13.75;;;;;;;;;;4940524;29;20510;-80
2021/12/02 12:39:22;;;;;;;22.20;14.10;;;;;;;;;;4952528;29;20054;-80
2021/12/02 12:42:15;;;;;;;26.08;16.23;;;;;;;;;;4952404;28;20046;-80
2021/12/02 12:44:57;;;;;;;21.63;14.73;;;;;;;;;;4954916;29;20034;-79
2021/12/02 12:47:41;;;;;;;27.58;16.98;;;;;;;;;;4950815;29;20036;-81
2021/12/02 12:50:25;;;;;;;25.90;16.45;;;;;;;;;;4936128;29;20039;-80
2021/12/02 12:53:07;;;;;;;23.65;16.05;;;;;;;;;;4934722;29;20039;-79
2021/12/02 12:55:55;;;;;;;24.58;17.38;;;;;;;;;;4935990;29;20557;-81
2021/12/02 12:58:25;;;;;;;24.83;16.17;;;;;;;;;;4935726;29;20040;-80
2021/12/02 13:00:55;;;;;;;28.20;17.55;;;;;;;;;;4935594;29;20040;-81
2021/12/02 13:03:31;;;;;;;;;;;;;;;;;;4931297;29;20114;-80
2021/12/02 13:06:01;;;;;;;32.00;17.20;;;;;;;;;;4934936;29;19919;-79
2021/12/02 13:08:43;;;;;;;28.60;17.67;;;;;;;;;;4933722;29;20035;-79
2021/12/02 13:11:18;;;;;;;25.00;14.88;;;;;;;;;;4955670;29;20067;-80
2021/12/02 13:13:45;;;;;;;27.92;15.77;;;;;;;;;;4955944;29;20039;-80
2021/12/02 13:16:18;;;;;;;27.17;16.63;;;;;;;;;;4955892;28;20035;-80
2021/12/02 13:18:51;;;;;;;23.30;16.30;;;;;;;;;;4955217;29;20066;-78
2021/12/02 13:21:21;;;;;;;25.17;16.02;;;;;;;;;;4954883;29;20070;-79
2021/12/02 13:24:02;;;;;;;23.73;16.10;;;;;;;;;;4932458;29;20410;-82
2021/12/02 13:26:34;;;;;;;23.92;16.25;;;;;;;;;;4954735;29;20063;-79
2021/12/02 13:29:21;;;;;;;25.52;14.73;;;;;;;;;;4954893;28;20050;-81
2021/12/02 13:31:50;;;;;;;21.30;14.70;;;;;;;;;;4954454;29;20661;-79
2021/12/02 13:34:17;;;;;;;26.17;15.57;;;;;;;;;;4954272;29;20063;-78
2021/12/02 13:36:43;;;;;;;23.00;15.45;;;;;;;;;;4954514;29;20035;-80
2021/12/02 13:39:11;;;;;;;22.58;14.30;;;;;;;;;;4954587;28;20050;-77
2021/12/02 13:41:51;;;;;;;23.05;14.48;;;;;;;;;;4953973;28;20043;-77
2021/12/02 13:44:23;;;;;;;21.63;13.32;;;;;;;;;;4953215;28;20521;-81
2021/12/02 13:47:13;;;;;;;18.73;13.80;;;;;;;;;;4950676;28;20043;-79
2021/12/02 13:49:44;;;;;;;23.17;13.02;;;;;;;;;;4954845;29;20035;-80
2021/12/02 13:55:10;;;;;;;20.67;12.82;;;;;;;;;;4943392;29;20085;-77
2021/12/02 13:57:41;;;;;;;22.48;13.07;;;;;;;;;;4935544;29;20028;-83
2021/12/02 14:00:08;;;;;;;19.17;12.20;;;;;;;;;;4935839;29;20036;-81
2021/12/02 14:02:34;;;;;;;19.65;13.30;;;;;;;;;;4935130;29;20035;-79
2021/12/02 14:04:59;;;;;;;18.70;12.88;;;;;;;;;;4934216;29;20035;-81
2021/12/02 14:07:27;;;;;;;18.73;12.02;;;;;;;;;;4934747;29;20031;-82
2021/12/02 14:09:55;;;;;;;19.77;14.55;;;;;;;;;;4933213;29;20415;-80
2021/12/02 14:12:25;;;;;;;21.50;12.50;;;;;;;;;;4934830;29;20126;-81
2021/12/02 14:15:15;;;;;;;16.63;11.77;;;;;;;;;;4935442;29;20031;-82
2021/12/02 14:17:52;;;;;;;17.92;12.43;;;;;;;;;;4934756;29;20518;-81
2021/12/02 14:20:20;;;;;;;17.08;10.40;;;;;;;;;;4935548;29;20040;-78
2021/12/02 14:22:50;;;;;;;24.00;16.25;;;;;;;;;;4934939;29;20464;-79
2021/12/02 14:25:16;;;;;;;17.10;10.82;;;;;;;;;;4934311;29;20031;-80
2021/12/02 14:27:41;;;;;;;17.30;10.20;;;;;;;;;;4934797;29;20439;-80
2021/12/02 14:30:19;;;;;;;12.93;9.90;;;;;;;;;;4931098;29;20059;-81
2021/12/02 14:32:47;;;;;;;13.20;10.23;;;;;;;;;;4917020;29;20035;-82
2021/12/02 14:35:18;;;;;;;14.85;10.05;;;;;;;;;;4933937;29;20035;-80
2021/12/02 14:37:46;;;;;;;17.00;10.63;;;;;;;;;;4933873;29;20036;-79
2021/12/02 14:40:48;;;;;;;15.80;9.43;;;;;;;;;;4916857;29;20517;-81
2021/12/02 14:43:32;;;;;;;14.05;9.52;;;;;;;;;;4932215;29;20039;-80
2021/12/02 14:46:23;;;;;;;13.50;8.82;;;;;;;;;;4933857;29;20099;-80
2021/12/02 14:49:05;;;;;;;15.85;11.02;;;;;;;;;;4929893;29;20458;-79
2021/12/02 14:51:54;;;;;;;16.30;8.55;;;;;;;;;;4933976;29;20138;-79
2021/12/02 14:54:35;;;;;;;11.90;10.40;;;;;;;;;;4933673;29;20416;-81
2021/12/02 14:57:03;;;;;;;11.57;8.00;;;;;;;;;;4958414;28;20030;-80
2021/12/02 14:59:31;;;;;;;12.98;8.90;;;;;;;;;;4979107;28;20042;-79
2021/12/02 15:02:02;;;;;;;13.18;8.77;;;;;;;;;;4978859;28;20045;-82
2021/12/02 15:04:32;;;;;;;15.15;9.38;;;;;;;;;;4977766;28;20039;-80
2021/12/02 15:07:19;;;;;;;13.25;9.48;;;;;;;;;;4978631;28;20035;-79
2021/12/02 15:09:58;;;;;;;12.90;8.40;;;;;;;;;;4978651;28;20034;-79
2021/12/02 15:12:36;;;;;;;13.30;9.23;;;;;;;;;;4978971;28;20054;-81
2021/12/02 15:15:06;;;;;;;12.27;9.50;;;;;;;;;;4976683;28;20122;-81